Goldsmith, Texas
Current Conditions -  °F | °C
As of 11:53 AM on Monday 24 Nov 2014 (Local Time) from KODO Reporting Station
Clear Clear  
Wind Chill: 51°   Ceiling: Unl
Heat Index: 51°   Visibility: 10mi
Dew Point: 26°   Wind: 13mph
Humidity: 38%   Direction: 340°NNW
Pressure: 30.11"   Gusts: NA
Location:  31.98°N, 102.62°W
Report Text: KODO 241753Z AUTO 34011KT 10SM CLR 11/M03 A3011 RMK AO2 SLP183 T01061033 10106 20011 50007
Loading
Personal Weather Stations






























Interactive Weather Map New forecast layout! Learn more

10-Day Weather Forecast

Advertisements
Track Severe Weather on mobile